createdAt,value
2018-08-10T00:13:04.291Z,71.07
2018-08-10T00:28:08.788Z,70.65
2018-08-10T00:43:13.006Z,73.56
2018-08-10T00:58:17.126Z,77.41
2018-08-10T01:13:21.729Z,79.48
2018-08-10T01:28:25.723Z,79.66
2018-08-10T01:43:29.496Z,80.16
2018-08-10T01:58:33.590Z,82.57
2018-08-10T02:13:37.755Z,83.06
2018-08-10T02:28:41.554Z,83.43
2018-08-10T02:43:45.546Z,83.85
2018-08-10T02:58:49.606Z,85.72
2018-08-10T03:13:53.654Z,89.33
2018-08-10T03:28:57.727Z,91.57
2018-08-10T03:44:01.684Z,90.24
2018-08-10T03:59:05.450Z,84.92
2018-08-10T04:14:09.497Z,79.41
2018-08-10T04:29:13.599Z,73.29
2018-08-10T04:44:17.688Z,63.84
2018-08-10T04:59:21.867Z,61.95
2018-08-10T05:14:25.878Z,61.93
2018-08-10T05:29:30.776Z,64.88
2018-08-10T05:44:34.822Z,61.99
2018-08-10T05:59:38.927Z,63.77
2018-08-10T06:14:43.165Z,62.06
2018-08-10T06:29:47.335Z,60.76
2018-08-10T06:44:51.118Z,58.73
2018-08-10T06:59:54.873Z,56.20
2018-08-10T07:14:58.667Z,53.63
2018-08-10T07:30:02.900Z,51.23
2018-08-10T07:45:07.146Z,47.44
2018-08-10T08:00:11.151Z,45.24
2018-08-10T08:15:15.331Z,45.95
2018-08-10T08:30:19.099Z,43.49
2018-08-10T08:46:27.032Z,44.44
2018-08-10T09:01:30.955Z,43.69
2018-08-10T09:16:35.150Z,40.20
2018-08-10T09:31:39.356Z,42.68
2018-08-10T09:46:43.640Z,38.11
2018-08-10T10:01:53.002Z,42.46
2018-08-10T10:16:57.283Z,43.93
2018-08-10T10:32:01.511Z,39.80
2018-08-10T10:47:05.846Z,38.84
2018-08-10T11:02:09.631Z,38.04
2018-08-10T11:17:13.563Z,38.91
2018-08-10T11:32:48.670Z,41.13
2018-08-10T11:47:52.634Z,39.24
2018-08-10T12:02:56.357Z,41.59
2018-08-10T12:18:00.145Z,41.01
2018-08-10T12:33:04.371Z,38.71
2018-08-10T12:48:08.519Z,38.58
2018-08-10T13:03:12.743Z,37.72
2018-08-10T13:18:16.868Z,38.46
2018-08-10T13:33:20.631Z,37.93
2018-08-10T13:48:24.883Z,38.52
2018-08-10T14:03:28.683Z,43.71
2018-08-10T14:18:33.204Z,42.66
2018-08-10T14:33:37.343Z,42.51
2018-08-10T14:48:41.479Z,47.00
2018-08-10T15:03:45.688Z,45.35
2018-08-10T15:18:49.959Z,49.05
2018-08-10T15:33:54.137Z,49.13
2018-08-10T15:48:58.322Z,48.85
2018-08-10T16:04:02.564Z,49.71
2018-08-10T16:19:06.747Z,51.10
2018-08-10T16:34:10.863Z,51.58
2018-08-10T16:49:15.060Z,52.71
2018-08-10T17:04:19.442Z,53.94
2018-08-10T17:19:23.737Z,55.22
2018-08-10T17:34:27.780Z,55.92
2018-08-10T17:49:32.231Z,56.90
2018-08-10T18:04:36.442Z,57.54
2018-08-10T18:19:40.370Z,54.07
2018-08-10T18:34:44.203Z,55.10
2018-08-10T18:49:48.275Z,54.13
2018-08-10T19:04:52.727Z,54.45
2018-08-10T19:19:56.782Z,55.43
2018-08-10T19:35:01.258Z,55.79
2018-08-10T19:50:06.111Z,57.12
2018-08-10T20:05:10.919Z,56.32
2018-08-10T20:20:16.538Z,56.24
2018-08-10T20:35:21.207Z,56.29
2018-08-10T20:50:25.741Z,56.08
2018-08-10T21:05:29.968Z,56.93
2018-08-10T21:20:34.403Z,56.89
2018-08-10T21:35:38.457Z,56.50
2018-08-10T21:50:42.644Z,57.85
2018-08-10T22:05:47.125Z,57.46
2018-08-10T22:20:51.361Z,58.24
2018-08-10T22:35:55.596Z,60.06
2018-08-10T22:50:59.790Z,67.33
2018-08-10T23:06:03.997Z,69.34
2018-08-10T23:21:08.263Z,69.50
2018-08-10T23:36:12.586Z,70.41
2018-08-10T23:51:16.530Z,69.90
